Time;durP1;ratioP1;P1;durP2;ratioP2;P2;SDS_P1;SDS_P2;PMS_P1;PMS_P2;Temp;Humidity;BMP_temperature;BMP_pressure;BME280_temperature;BME280_humidity;BME280_pressure;Samples;Min_cycle;Max_cycle;Signal;HPM_P1;HPM_P2
2023/05/13 00:02:17;;;;;;;6.38;5.60;;;13.50;64.40;;;;;;4971300;28;20424;-65
2023/05/13 00:04:44;;;;;;;6.10;5.32;;;13.50;65.00;;;;;;4970543;28;20420;-65
2023/05/13 00:07:12;;;;;;;5.50;5.00;;;13.40;65.30;;;;;;4970577;28;20412;-66
2023/05/13 00:09:38;;;;;;;5.30;4.80;;;13.40;65.70;;;;;;4971019;28;20416;-65
2023/05/13 00:12:05;;;;;;;6.33;4.87;;;13.30;66.10;;;;;;4970710;28;20459;-65
2023/05/13 00:14:32;;;;;;;6.93;5.00;;;13.30;66.70;;;;;;4970397;28;20926;-65
2023/05/13 00:17:01;;;;;;;5.90;5.25;;;13.20;67.20;;;;;;4969998;28;20428;-65
2023/05/13 00:19:27;;;;;;;8.30;5.13;;;13.20;67.70;;;;;;4969884;28;20900;-66
2023/05/13 00:21:54;;;;;;;7.10;4.70;;;13.20;68.10;;;;;;4970578;28;20494;-66
2023/05/13 00:24:22;;;;;;;6.45;5.00;;;13.10;68.70;;;;;;4970063;28;20420;-65
2023/05/13 00:26:49;;;;;;;5.75;5.15;;;13.10;70.00;;;;;;4970900;28;20925;-65
2023/05/13 00:29:16;;;;;;;5.40;4.90;;;13.00;71.00;;;;;;4973919;28;20890;-65
2023/05/13 00:31:42;;;;;;;5.90;5.40;;;13.00;71.40;;;;;;4973635;28;20440;-65
2023/05/13 00:34:09;;;;;;;7.43;5.03;;;12.90;71.70;;;;;;4973435;28;20424;-65
2023/05/13 00:36:36;;;;;;;7.17;4.90;;;12.90;72.20;;;;;;4973805;28;20798;-65
2023/05/13 00:39:03;;;;;;;5.40;4.90;;;12.80;72.70;;;;;;4973192;28;20433;-65
2023/05/13 00:41:31;;;;;;;5.50;5.00;;;12.80;73.60;;;;;;4973316;28;20944;-65
2023/05/13 00:43:58;;;;;;;6.47;5.20;;;12.80;73.80;;;;;;4973604;28;20763;-65
2023/05/13 00:46:25;;;;;;;5.40;4.90;;;12.80;74.00;;;;;;4974227;28;20451;-65
2023/05/13 00:48:52;;;;;;;6.88;5.30;;;12.70;74.30;;;;;;4973315;28;20504;-64
2023/05/13 00:51:18;;;;;;;6.43;5.20;;;12.60;74.70;;;;;;4973528;28;20462;-64
2023/05/13 00:53:46;;;;;;;7.60;5.30;;;12.60;75.90;;;;;;4974446;28;20758;-64
2023/05/13 00:56:13;;;;;;;5.50;4.80;;;12.60;75.60;;;;;;4973112;28;20440;-64
2023/05/13 00:58:41;;;;;;;5.65;5.05;;;12.50;76.30;;;;;;4973239;28;20424;-64
2023/05/13 01:01:14;;;;;;;6.15;5.43;;;12.50;77.00;;;;;;4973665;28;20420;-64
2023/05/13 01:03:50;;;;;;;6.68;5.47;;;12.50;77.80;;;;;;4973468;28;20798;-64
2023/05/13 01:06:23;;;;;;;5.28;4.78;;;12.40;78.90;;;;;;4974380;28;20755;-64
2023/05/13 01:08:57;;;;;;;7.22;4.90;;;12.40;80.70;;;;;;4973113;28;20436;-64
2023/05/13 01:11:28;;;;;;;6.35;5.40;;;12.30;82.50;;;;;;4972891;28;20882;-64
2023/05/13 01:14:06;;;;;;;6.03;5.43;;;12.30;84.10;;;;;;4972818;28;20427;-64
2023/05/13 01:16:37;;;;;;;5.80;5.10;;;12.20;84.70;;;;;;4972960;28;20471;-64
2023/05/13 01:19:12;;;;;;;6.72;5.30;;;12.20;86.00;;;;;;4973065;28;20416;-64
2023/05/13 01:21:40;;;;;;;7.32;5.30;;;12.20;86.60;;;;;;4972936;28;20425;-64
2023/05/13 01:24:07;;;;;;;5.97;5.30;;;12.10;86.60;;;;;;4972830;28;20786;-64
2023/05/13 01:26:34;;;;;;;8.32;5.50;;;12.10;87.70;;;;;;4974251;28;21006;-65
2023/05/13 01:29:01;;;;;;;5.40;4.90;;;12.00;87.60;;;;;;4972743;28;20420;-66
2023/05/13 01:31:29;;;;;;;8.05;5.35;;;12.00;87.00;;;;;;4972757;28;20424;-65
2023/05/13 01:33:57;;;;;;;8.80;7.85;;;12.00;86.90;;;;;;4972599;28;20886;-65
2023/05/13 01:36:24;;;;;;;5.60;5.10;;;12.00;86.70;;;;;;4972615;28;20448;-65
2023/05/13 01:38:53;;;;;;;5.82;5.07;;;12.00;87.20;;;;;;4971608;28;20428;-64
2023/05/13 01:41:20;;;;;;;6.43;5.40;;;12.00;88.70;;;;;;4972992;28;20427;-65
2023/05/13 01:43:47;;;;;;;6.00;5.40;;;11.90;89.00;;;;;;4972724;28;20478;-65
2023/05/13 01:46:14;;;;;;;6.10;5.00;;;11.90;89.70;;;;;;4972274;28;20898;-65
2023/05/13 01:48:41;;;;;;;5.80;5.03;;;11.90;90.40;;;;;;4972439;28;20420;-65
2023/05/13 01:51:08;;;;;;;6.20;5.47;;;11.80;91.20;;;;;;4972192;28;20905;-65
2023/05/13 01:53:34;;;;;;;5.40;4.90;;;11.80;91.70;;;;;;4972782;28;20431;-65
2023/05/13 01:56:02;;;;;;;6.38;5.18;;;11.80;91.90;;;;;;4972217;28;20424;-65
2023/05/13 01:58:29;;;;;;;7.60;5.30;;;11.80;92.10;;;;;;4972514;28;20428;-65
2023/05/13 02:00:56;;;;;;;6.00;5.20;;;11.80;92.00;;;;;;4972032;28;20428;-64
2023/05/13 02:03:23;;;;;;;7.90;5.80;;;11.80;91.70;;;;;;4972408;28;20427;-64
2023/05/13 02:05:49;;;;;;;5.63;5.03;;;11.80;91.70;;;;;;4972409;28;20420;-64
2023/05/13 02:08:16;;;;;;;6.10;5.50;;;11.80;92.10;;;;;;4972302;28;20904;-65
2023/05/13 02:10:43;;;;;;;6.05;5.10;;;11.80;92.60;;;;;;4972333;28;20424;-65
2023/05/13 02:13:11;;;;;;;6.05;5.45;;;11.70;93.00;;;;;;4972156;28;20890;-65
2023/05/13 02:15:38;;;;;;;5.85;5.35;;;11.70;93.40;;;;;;4972341;28;20440;-65
2023/05/13 02:18:05;;;;;;;6.18;5.57;;;11.60;93.80;;;;;;4972196;28;20447;-64
2023/05/13 02:20:31;;;;;;;6.63;5.40;;;11.60;94.10;;;;;;4972341;28;20486;-65
2023/05/13 02:22:58;;;;;;;5.63;5.13;;;11.60;94.50;;;;;;4971799;28;20431;-65
2023/05/13 02:25:25;;;;;;;5.88;5.30;;;11.50;95.00;;;;;;4971759;28;20787;-65
2023/05/13 02:27:51;;;;;;;6.80;5.70;;;11.60;94.90;;;;;;4972337;28;20424;-65
2023/05/13 02:30:20;;;;;;;6.82;5.90;;;11.60;94.80;;;;;;4971797;28;20420;-65
2023/05/13 02:32:47;;;;;;;6.07;5.47;;;11.60;94.50;;;;;;4972095;28;20428;-65
2023/05/13 02:35:14;;;;;;;7.85;5.40;;;11.60;94.50;;;;;;4971742;28;20435;-64
2023/05/13 02:37:41;;;;;;;7.93;5.30;;;11.60;94.30;;;;;;4971531;28;20439;-64
2023/05/13 02:40:09;;;;;;;6.23;5.63;;;11.60;94.30;;;;;;4971539;28;20420;-65
2023/05/13 02:42:35;;;;;;;6.28;5.68;;;11.60;94.30;;;;;;4971830;28;20436;-64
2023/05/13 02:45:02;;;;;;;8.18;5.63;;;11.50;94.20;;;;;;4971798;28;20508;-64
2023/05/13 02:47:30;;;;;;;5.88;5.28;;;11.50;94.60;;;;;;4971630;28;20463;-64
2023/05/13 02:49:57;;;;;;;5.57;5.07;;;11.50;94.40;;;;;;4970265;28;20428;-64
2023/05/13 02:52:24;;;;;;;7.43;5.72;;;11.50;94.50;;;;;;4970933;28;20420;-64
2023/05/13 02:54:51;;;;;;;6.25;5.65;;;11.50;94.50;;;;;;4971472;28;20421;-65
2023/05/13 02:57:17;;;;;;;7.45;5.60;;;11.40;95.00;;;;;;4970884;28;20762;-65
2023/05/13 02:59:44;;;;;;;6.53;5.67;;;11.30;95.60;;;;;;4971364;28;20788;-64
2023/05/13 03:02:11;;;;;;;6.75;5.68;;;11.30;95.80;;;;;;4971323;28;20435;-64
2023/05/13 03:04:40;;;;;;;7.65;6.50;;;11.30;95.90;;;;;;4970996;28;20416;-64
2023/05/13 03:07:07;;;;;;;6.82;6.22;;;11.30;96.00;;;;;;4970936;28;20412;-64
2023/05/13 03:09:33;;;;;;;6.10;5.50;;;11.20;96.10;;;;;;4971418;28;20427;-64
2023/05/13 03:12:00;;;;;;;6.40;5.45;;;11.20;96.30;;;;;;4972262;28;20739;-64
2023/05/13 03:14:27;;;;;;;6.60;5.70;;;11.20;96.90;;;;;;4971035;28;20427;-65
2023/05/13 03:16:54;;;;;;;6.90;6.20;;;11.20;96.80;;;;;;4970794;28;20440;-65
2023/05/13 03:19:21;;;;;;;9.63;6.13;;;11.20;97.10;;;;;;4971220;28;20416;-65
2023/05/13 03:21:49;;;;;;;6.50;5.50;;;11.20;97.20;;;;;;4971120;28;20432;-64
2023/05/13 03:24:16;;;;;;;7.30;6.00;;;11.20;97.20;;;;;;4971021;28;20917;-64
2023/05/13 03:26:43;;;;;;;6.38;5.57;;;11.20;97.40;;;;;;4971015;28;20423;-64
2023/05/13 03:29:09;;;;;;;6.63;5.70;;;11.20;97.50;;;;;;4971140;28;20508;-64
2023/05/13 03:31:37;;;;;;;8.38;5.97;;;11.20;97.30;;;;;;4970853;28;20789;-64
2023/05/13 03:34:04;;;;;;;6.65;5.65;;;11.20;97.20;;;;;;4971849;28;20431;-65
2023/05/13 03:36:31;;;;;;;7.72;6.10;;;11.20;97.30;;;;;;4971858;28;20424;-65
2023/05/13 03:38:59;;;;;;;6.63;5.93;;;11.30;97.30;;;;;;4970992;28;20814;-63
2023/05/13 03:41:27;;;;;;;6.72;5.97;;;11.30;97.20;;;;;;4971667;28;20416;-65
2023/05/13 03:43:53;;;;;;;6.95;6.25;;;11.40;97.20;;;;;;4971238;28;20818;-64
2023/05/13 03:46:21;;;;;;;7.03;6.10;;;11.40;97.00;;;;;;4970939;28;20442;-65
2023/05/13 03:48:49;;;;;;;6.10;5.50;;;11.40;97.00;;;;;;4970335;28;20546;-64
2023/05/13 03:51:15;;;;;;;8.10;5.67;;;11.40;97.00;;;;;;4970966;28;20519;-64
2023/05/13 03:53:42;;;;;;;6.20;5.60;;;11.40;97.00;;;;;;4970764;28;20426;-64
2023/05/13 03:56:10;;;;;;;9.70;7.10;;;11.40;96.80;;;;;;4970538;28;20786;-64
2023/05/13 03:58:37;;;;;;;6.82;5.75;;;11.40;96.60;;;;;;4970783;28;20633;-64
2023/05/13 04:01:05;;;;;;;7.67;5.83;;;11.50;96.30;;;;;;4972334;28;20416;-64
2023/05/13 04:03:31;;;;;;;6.30;5.75;;;11.50;96.10;;;;;;4978704;28;20813;-64
2023/05/13 04:05:58;;;;;;;6.37;5.77;;;11.50;95.90;;;;;;4971193;28;20424;-64
2023/05/13 04:11:42;;;;;;;6.67;6.00;;;11.80;96.10;;;;;;5090067;28;20883;-64
2023/05/13 04:14:09;;;;;;;6.65;5.78;;;12.10;95.10;;;;;;5089318;28;20407;-64
2023/05/13 04:16:35;;;;;;;6.93;5.60;;;12.30;93.90;;;;;;5089592;28;20411;-65
2023/05/13 04:19:02;;;;;;;7.75;5.80;;;12.60;92.80;;;;;;5089484;28;20418;-64
2023/05/13 04:21:30;;;;;;;6.28;5.68;;;12.80;91.30;;;;;;5089671;28;20750;-64
2023/05/13 04:23:56;;;;;;;6.75;6.15;;;13.10;90.00;;;;;;5089771;28;20415;-64
2023/05/13 04:26:23;;;;;;;7.25;5.90;;;13.30;87.20;;;;;;5089012;28;20870;-64
2023/05/13 04:28:51;;;;;;;5.97;5.47;;;13.40;84.80;;;;;;5089161;28;20407;-64
2023/05/13 04:31:20;;;;;;;6.53;5.45;;;13.50;83.30;;;;;;5089096;28;20434;-64
2023/05/13 04:33:46;;;;;;;6.50;5.60;;;13.60;82.10;;;;;;5089581;28;20415;-64
2023/05/13 04:36:13;;;;;;;6.50;5.80;;;13.60;81.80;;;;;;5089533;28;20415;-64
2023/05/13 04:38:40;;;;;;;7.87;5.90;;;13.70;81.80;;;;;;5051260;22;20939;-59
2023/05/13 04:41:07;;;;;;;8.07;5.57;;;13.70;81.50;;;;;;4966861;28;20418;-59
2023/05/13 04:43:33;;;;;;;6.20;5.60;;;13.90;80.20;;;;;;4967610;28;20428;-58
2023/05/13 04:46:01;;;;;;;6.93;5.10;;;14.20;78.50;;;;;;4966806;28;20987;-59
2023/05/13 04:48:28;;;;;;;6.05;5.25;;;14.40;76.40;;;;;;4967032;28;20899;-59
2023/05/13 04:50:55;;;;;;;6.10;5.50;;;14.60;74.50;;;;;;4968188;28;20926;-60
2023/05/13 04:53:22;;;;;;;6.10;5.10;;;14.70;72.60;;;;;;4968111;28;20428;-59
2023/05/13 04:55:49;;;;;;;9.52;5.28;;;14.90;70.90;;;;;;4966715;28;20432;-59
2023/05/13 04:58:16;;;;;;;5.40;4.90;;;15.00;69.70;;;;;;4966272;28;20421;-57
2023/05/13 05:00:43;;;;;;;5.68;5.18;;;15.20;68.40;;;;;;4966159;28;20899;-61
2023/05/13 05:03:11;;;;;;;6.32;5.40;;;15.30;66.70;;;;;;4966640;28;20432;-59
2023/05/13 05:05:38;;;;;;;7.38;5.10;;;15.60;65.30;;;;;;4966596;28;20490;-58
2023/05/13 05:08:05;;;;;;;6.50;5.40;;;15.80;63.70;;;;;;4967063;28;20432;-58
2023/05/13 05:10:31;;;;;;;5.82;5.30;;;15.90;62.70;;;;;;4966551;28;20448;-58
2023/05/13 05:12:58;;;;;;;8.50;5.70;;;16.00;61.50;;;;;;4966665;28;20791;-58
2023/05/13 05:15:25;;;;;;;6.85;5.63;;;16.20;60.90;;;;;;4966632;28;20417;-59
2023/05/13 05:17:52;;;;;;;6.30;5.65;;;16.30;60.50;;;;;;4966067;28;20927;-59
2023/05/13 05:20:20;;;;;;;5.90;5.30;;;16.50;59.80;;;;;;4966793;28;20418;-59
2023/05/13 05:22:49;;;;;;;8.18;5.32;;;16.50;59.00;;;;;;4955272;28;20426;-58
2023/05/13 05:25:15;;;;;;;5.80;4.60;;;16.40;59.20;;;;;;4953244;29;20430;-59
2023/05/13 05:27:42;;;;;;;6.93;5.75;;;16.40;59.20;;;;;;4953382;28;20804;-59
2023/05/13 05:30:11;;;;;;;6.10;5.50;;;16.20;59.10;;;;;;4953478;29;20434;-59
2023/05/13 05:32:37;;;;;;;6.90;5.18;;;16.10;59.90;;;;;;4953586;29;20452;-59
2023/05/13 05:35:05;;;;;;;6.05;5.47;;;16.00;60.40;;;;;;4953855;29;20452;-59
2023/05/13 05:37:33;;;;;;;6.32;5.68;;;15.90;60.70;;;;;;4953069;28;20433;-60
2023/05/13 05:40:00;;;;;;;5.85;5.20;;;15.80;61.00;;;;;;4953008;29;20896;-59
2023/05/13 05:42:27;;;;;;;6.47;5.87;;;15.70;61.30;;;;;;4954612;29;20422;-59
2023/05/13 05:44:53;;;;;;;7.23;5.40;;;15.60;61.90;;;;;;4953784;29;20515;-59
2023/05/13 05:47:20;;;;;;;6.38;5.30;;;15.50;62.40;;;;;;4955129;29;20422;-59
2023/05/13 05:49:47;;;;;;;6.60;5.60;;;15.50;62.30;;;;;;4957396;29;20433;-57
2023/05/13 05:52:13;;;;;;;5.95;5.30;;;15.50;62.70;;;;;;4957055;29;20426;-59
2023/05/13 05:54:41;;;;;;;7.40;5.18;;;15.50;62.50;;;;;;4957980;29;20418;-58
2023/05/13 05:57:08;;;;;;;7.70;5.32;;;15.60;61.80;;;;;;4956827;29;20908;-58
2023/05/13 05:59:35;;;;;;;6.72;5.07;;;15.60;61.30;;;;;;4954396;29;20433;-60
2023/05/13 06:02:02;;;;;;;5.70;5.20;;;15.60;61.20;;;;;;4954097;29;20422;-58
2023/05/13 06:04:28;;;;;;;6.00;5.40;;;15.50;60.90;;;;;;4953497;29;20950;-58
2023/05/13 06:06:55;;;;;;;7.13;4.90;;;15.50;60.80;;;;;;4953614;29;20420;-59
2023/05/13 06:09:22;;;;;;;6.80;5.00;;;15.40;60.50;;;;;;4953524;29;20429;-59
2023/05/13 06:11:50;;;;;;;6.30;5.50;;;15.30;60.40;;;;;;4953410;29;20488;-59
2023/05/13 06:14:17;;;;;;;6.82;5.15;;;15.30;60.50;;;;;;4955156;29;20911;-59
2023/05/13 06:16:44;;;;;;;7.03;5.22;;;15.30;60.50;;;;;;4955837;29;20426;-58
2023/05/13 06:19:10;;;;;;;6.10;4.80;;;15.30;60.50;;;;;;4956705;29;20426;-59
2023/05/13 06:21:37;;;;;;;5.60;4.93;;;15.30;60.30;;;;;;4956104;29;20785;-59
2023/05/13 06:24:04;;;;;;;8.90;5.10;;;15.30;60.20;;;;;;4957932;29;20429;-57
2023/05/13 06:26:32;;;;;;;8.55;4.60;;;15.40;60.40;;;;;;4957237;29;20788;-60
2023/05/13 06:29:00;;;;;;;5.60;4.90;;;15.40;60.20;;;;;;4956336;29;20428;-59
2023/05/13 06:31:26;;;;;;;5.35;4.85;;;15.50;60.00;;;;;;4956272;29;20536;-57
2023/05/13 06:33:53;;;;;;;7.75;5.40;;;15.60;59.90;;;;;;4957227;28;20422;-59
2023/05/13 06:36:20;;;;;;;7.50;5.50;;;15.60;59.70;;;;;;4956047;29;20903;-59
2023/05/13 06:38:47;;;;;;;7.28;5.50;;;15.70;59.50;;;;;;4956527;28;20469;-58
2023/05/13 06:41:14;;;;;;;6.10;4.97;;;15.70;59.50;;;;;;4956425;29;20578;-59
2023/05/13 06:43:40;;;;;;;5.20;4.70;;;15.80;59.60;;;;;;4955148;29;20429;-59
2023/05/13 06:46:08;;;;;;;6.05;4.60;;;16.00;59.50;;;;;;4955892;29;20899;-60
2023/05/13 06:48:35;;;;;;;8.50;4.80;;;16.10;58.60;;;;;;4955495;28;20426;-59
2023/05/13 06:51:04;;;;;;;8.68;5.15;;;16.20;58.10;;;;;;4956466;29;21026;-59
2023/05/13 06:53:31;;;;;;;6.53;5.05;;;16.20;57.70;;;;;;4957144;29;20484;-59
2023/05/13 06:55:57;;;;;;;7.55;4.80;;;16.30;57.40;;;;;;4957174;29;20421;-59
2023/05/13 06:58:24;;;;;;;5.50;4.70;;;16.40;57.00;;;;;;4955595;29;20425;-60
2023/05/13 07:00:51;;;;;;;6.40;4.80;;;16.50;56.80;;;;;;4955955;29;20422;-60
2023/05/13 07:03:19;;;;;;;7.32;5.22;;;16.50;57.10;;;;;;4956151;29;20432;-59
2023/05/13 07:05:46;;;;;;;8.57;5.38;;;16.60;57.20;;;;;;4955789;29;20429;-60
2023/05/13 07:08:16;;;;;;;5.93;5.00;;;16.70;56.90;;;;;;4955214;29;20525;-59
2023/05/13 07:10:43;;;;;;;7.73;5.23;;;16.80;56.80;;;;;;4955343;29;21060;-60
2023/05/13 07:13:11;;;;;;;5.82;5.13;;;16.90;56.70;;;;;;4953967;29;20449;-59
2023/05/13 07:15:38;;;;;;;9.43;4.57;;;16.90;56.70;;;;;;4954053;29;20429;-59
2023/05/13 07:18:04;;;;;;;7.85;4.45;;;17.00;56.90;;;;;;4953070;29;20422;-59
2023/05/13 07:20:32;;;;;;;7.20;4.90;;;17.20;56.90;;;;;;4953752;29;20418;-59
2023/05/13 07:22:59;;;;;;;8.50;5.55;;;17.30;56.50;;;;;;4955042;29;20930;-59
2023/05/13 07:25:26;;;;;;;7.40;5.30;;;17.40;56.20;;;;;;4957688;29;20418;-59
2023/05/13 07:27:53;;;;;;;8.30;5.57;;;17.50;55.80;;;;;;4957971;29;20441;-59
2023/05/13 07:30:20;;;;;;;7.35;5.50;;;17.50;55.60;;;;;;4955318;29;20425;-61
2023/05/13 07:32:46;;;;;;;6.30;5.70;;;17.60;55.30;;;;;;4956166;29;20421;-57
2023/05/13 07:35:15;;;;;;;6.82;5.13;;;17.60;55.10;;;;;;4956560;29;20486;-61
2023/05/13 07:37:44;;;;;;;6.82;4.95;;;17.70;55.30;;;;;;4955340;28;20538;-59
2023/05/13 07:40:12;;;;;;;6.43;5.10;;;17.80;55.40;;;;;;4954259;29;20859;-60
2023/05/13 07:42:38;;;;;;;5.57;4.97;;;18.00;55.30;;;;;;4955224;29;20426;-59
2023/05/13 07:45:07;;;;;;;5.30;4.80;;;18.10;54.90;;;;;;4956198;29;20448;-59
2023/05/13 07:47:34;;;;;;;5.23;4.73;;;18.10;54.60;;;;;;4955630;29;20900;-59
2023/05/13 07:50:01;;;;;;;5.38;4.80;;;18.20;54.60;;;;;;4956230;29;20422;-57
2023/05/13 07:52:27;;;;;;;7.13;4.73;;;18.20;54.30;;;;;;4955918;29;20433;-60
2023/05/13 07:54:55;;;;;;;6.53;5.30;;;18.30;54.00;;;;;;4955783;29;20433;-59
2023/05/13 07:57:22;;;;;;;7.57;5.18;;;18.40;54.10;;;;;;4954087;29;20426;-59
2023/05/13 07:59:49;;;;;;;6.70;5.28;;;18.40;53.40;;;;;;4952259;29;20426;-61
2023/05/13 08:02:16;;;;;;;6.00;5.38;;;18.50;53.40;;;;;;4953441;29;20888;-60
2023/05/13 08:04:42;;;;;;;6.07;4.90;;;18.60;53.30;;;;;;4953282;29;20896;-63
2023/05/13 08:07:10;;;;;;;5.67;4.90;;;18.70;53.10;;;;;;4952422;29;20426;-61
2023/05/13 08:09:37;;;;;;;6.73;5.30;;;18.80;53.00;;;;;;4952703;29;20414;-60
2023/05/13 08:12:06;;;;;;;6.20;5.10;;;19.00;52.90;;;;;;4952771;29;20448;-61
2023/05/13 08:14:33;;;;;;;6.50;5.10;;;19.10;52.70;;;;;;4953613;29;20484;-61
2023/05/13 08:17:00;;;;;;;5.30;4.75;;;19.30;52.50;;;;;;4952906;29;20980;-60
2023/05/13 08:19:27;;;;;;;6.68;5.32;;;19.50;52.00;;;;;;4952155;29;20859;-57
2023/05/13 08:21:53;;;;;;;7.28;5.38;;;19.60;51.60;;;;;;4952524;29;20432;-61
2023/05/13 08:24:20;;;;;;;6.35;5.10;;;19.60;51.60;;;;;;4953580;29;20431;-60
2023/05/13 08:26:47;;;;;;;5.87;4.90;;;19.70;51.40;;;;;;4952730;29;20923;-61
2023/05/13 08:29:15;;;;;;;6.25;5.70;;;19.70;51.20;;;;;;4953530;29;20414;-60
2023/05/13 08:31:42;;;;;;;7.10;5.38;;;19.80;51.20;;;;;;4953214;28;20438;-60
2023/05/13 08:34:08;;;;;;;6.20;5.30;;;19.90;51.10;;;;;;4952254;29;20422;-59
2023/05/13 08:36:35;;;;;;;6.55;5.10;;;20.00;51.00;;;;;;4952551;29;20801;-59
2023/05/13 08:39:02;;;;;;;6.63;5.47;;;20.10;51.00;;;;;;4953539;28;20421;-59
2023/05/13 08:41:30;;;;;;;6.20;5.40;;;20.10;50.80;;;;;;4951516;29;20414;-60
2023/05/13 08:43:58;;;;;;;5.72;5.13;;;20.20;50.80;;;;;;4952142;29;20422;-59
2023/05/13 08:46:27;;;;;;;6.88;5.00;;;20.20;51.00;;;;;;4952488;29;20422;-61
2023/05/13 08:48:55;;;;;;;6.87;5.70;;;20.20;51.00;;;;;;4952439;29;20500;-59
2023/05/13 08:51:22;;;;;;;9.30;5.80;;;20.40;50.60;;;;;;4952303;29;20434;-58
2023/05/13 08:53:51;;;;;;;8.82;5.45;;;20.40;49.80;;;;;;4952322;29;20433;-60
2023/05/13 08:56:17;;;;;;;6.10;5.45;;;20.50;49.80;;;;;;4952605;28;20425;-58
2023/05/13 08:58:44;;;;;;;6.75;5.75;;;20.60;50.00;;;;;;4955711;29;20413;-59
2023/05/13 09:01:12;;;;;;;7.10;6.40;;;20.70;50.20;;;;;;4955372;29;20849;-60
2023/05/13 09:03:51;;;;;;;8.05;6.15;;;20.70;50.50;;;;;;4956159;29;20418;-59
2023/05/13 09:06:18;;;;;;;6.80;5.88;;;20.90;50.60;;;;;;4956469;29;20426;-62
2023/05/13 09:08:45;;;;;;;10.23;6.53;;;20.90;50.20;;;;;;4956203;29;20426;-59
2023/05/13 09:11:12;;;;;;;6.97;6.28;;;20.90;50.00;;;;;;4955823;29;20795;-60
2023/05/13 09:13:39;;;;;;;8.50;6.10;;;20.90;50.10;;;;;;4955547;28;20426;-59
2023/05/13 09:16:06;;;;;;;6.65;5.90;;;21.00;50.10;;;;;;4956044;29;20509;-61
2023/05/13 09:18:34;;;;;;;7.90;6.72;;;21.10;50.00;;;;;;4955387;29;20475;-59
2023/05/13 09:21:23;;;;;;;8.10;5.90;;;21.10;49.60;;;;;;4956007;29;20430;-61
2023/05/13 09:23:50;;;;;;;6.53;5.93;;;21.20;49.80;;;;;;4957442;29;20479;-59
2023/05/13 09:26:27;;;;;;;6.28;5.50;;;21.30;49.40;;;;;;4961451;29;20422;-59
2023/05/13 09:29:15;;;;;;;7.85;5.40;;;21.30;49.00;;;;;;4961425;29;20426;-61
2023/05/13 09:31:41;;;;;;;6.82;6.00;;;21.40;48.60;;;;;;4960470;29;20915;-59
2023/05/13 09:34:08;;;;;;;6.45;5.53;;;21.50;48.40;;;;;;4960996;29;20418;-58
2023/05/13 09:36:37;;;;;;;7.22;5.80;;;21.50;48.20;;;;;;4957052;29;20426;-61
2023/05/13 09:39:03;;;;;;;8.07;5.60;;;21.60;47.20;;;;;;4954565;28;20910;-58
2023/05/13 09:41:31;;;;;;;6.53;5.68;;;21.60;46.60;;;;;;4954133;29;20935;-58
2023/05/13 09:43:58;;;;;;;6.07;5.43;;;21.60;46.80;;;;;;4954373;29;20433;-60
2023/05/13 09:46:25;;;;;;;7.20;5.05;;;21.60;47.10;;;;;;4954540;29;20433;-60
2023/05/13 09:48:55;;;;;;;7.55;5.03;;;21.60;46.20;;;;;;4954946;29;20493;-60
2023/05/13 09:51:26;;;;;;;6.20;4.95;;;21.70;45.80;;;;;;4954727;29;20839;-59
2023/05/13 09:53:54;;;;;;;7.85;5.03;;;21.90;45.50;;;;;;4955292;29;20456;-60
2023/05/13 09:56:23;;;;;;;6.30;5.00;;;22.00;44.60;;;;;;4954609;29;20422;-59
2023/05/13 09:58:53;;;;;;;6.72;5.30;;;22.00;44.80;;;;;;4954454;29;20430;-60
2023/05/13 10:01:21;;;;;;;5.93;5.18;;;21.90;44.80;;;;;;4953707;29;20427;-60
2023/05/13 10:03:48;;;;;;;5.95;4.80;;;21.90;44.90;;;;;;4955650;29;20425;-60
2023/05/13 10:06:17;;;;;;;5.90;4.60;;;21.90;44.90;;;;;;4959966;29;20471;-60
2023/05/13 10:08:46;;;;;;;6.75;4.60;;;21.90;44.70;;;;;;4959733;28;20422;-62
2023/05/13 10:11:15;;;;;;;6.30;5.07;;;22.00;44.90;;;;;;4958855;29;20421;-60
2023/05/13 10:13:44;;;;;;;5.38;4.80;;;22.20;44.90;;;;;;4959594;29;20425;-61
2023/05/13 10:16:11;;;;;;;5.88;4.78;;;22.40;44.60;;;;;;4959371;29;20430;-61
2023/05/13 10:18:38;;;;;;;6.28;4.35;;;22.60;44.10;;;;;;4956824;29;21018;-61
2023/05/13 10:21:05;;;;;;;5.30;4.78;;;22.70;43.50;;;;;;4955520;29;20819;-60
2023/05/13 10:23:33;;;;;;;7.18;5.00;;;22.70;43.20;;;;;;4954725;29;20422;-60
2023/05/13 10:26:00;;;;;;;6.10;4.88;;;22.60;42.90;;;;;;4954300;29;20530;-61
2023/05/13 10:28:29;;;;;;;8.43;4.72;;;22.50;42.80;;;;;;4954182;29;20421;-61
2023/05/13 10:30:56;;;;;;;6.72;5.00;;;22.50;43.10;;;;;;4953881;29;20418;-59
2023/05/13 10:33:23;;;;;;;5.22;4.72;;;22.50;42.30;;;;;;4954040;29;20434;-60
2023/05/13 10:36:01;;;;;;;6.40;4.60;;;22.60;42.20;;;;;;4954332;29;20426;-61
2023/05/13 10:38:43;;;;;;;6.55;4.93;;;22.60;42.50;;;;;;4954332;28;20773;-62
2023/05/13 10:41:23;;;;;;;6.68;5.18;;;22.70;42.30;;;;;;4954552;29;20414;-62
2023/05/13 10:43:58;;;;;;;7.03;5.20;;;22.60;41.90;;;;;;5077425;22;20438;-63
2023/05/13 10:46:26;;;;;;;5.22;4.63;;;22.60;42.60;;;;;;5095826;28;20425;-64
2023/05/13 10:48:56;;;;;;;6.50;4.28;;;22.70;43.10;;;;;;5094518;28;20449;-63
2023/05/13 10:51:24;;;;;;;5.03;4.30;;;22.80;43.00;;;;;;5095919;28;20406;-63
2023/05/13 10:53:53;;;;;;;4.80;4.28;;;23.00;42.60;;;;;;5095848;28;20432;-63
2023/05/13 10:56:20;;;;;;;6.18;4.95;;;23.20;42.20;;;;;;5095618;28;20414;-64
2023/05/13 10:58:59;;;;;;;7.35;4.80;;;23.40;41.70;;;;;;5097292;28;20528;-63
2023/05/13 11:01:29;;;;;;;7.95;5.40;;;23.50;41.70;;;;;;5097755;28;20422;-63
2023/05/13 11:03:58;;;;;;;5.80;4.80;;;23.60;41.30;;;;;;5097965;28;20880;-63
2023/05/13 11:06:31;;;;;;;8.43;4.80;;;23.60;40.70;;;;;;5097257;28;20410;-63
2023/05/13 11:08:58;;;;;;;6.15;4.50;;;23.60;40.50;;;;;;5097308;28;20414;-63
2023/05/13 11:11:31;;;;;;;6.20;4.50;;;23.60;40.70;;;;;;5097040;28;20409;-63
2023/05/13 11:14:08;;;;;;;5.55;3.85;;;23.80;40.60;;;;;;5096226;28;20458;-63
2023/05/13 11:16:36;;;;;;;5.28;3.83;;;23.90;40.60;;;;;;5096407;28;20406;-63
2023/05/13 11:19:03;;;;;;;5.00;4.50;;;24.10;40.30;;;;;;5095556;28;20406;-62
2023/05/13 11:21:32;;;;;;;5.00;4.50;;;24.40;39.70;;;;;;5094223;28;20414;-65
2023/05/13 11:24:02;;;;;;;6.63;4.40;;;24.50;39.00;;;;;;5093371;28;20413;-64
2023/05/13 11:26:45;;;;;;;6.60;4.30;;;24.60;38.60;;;;;;5093380;28;20436;-64
2023/05/13 11:29:13;;;;;;;4.38;3.97;;;24.60;38.00;;;;;;5092469;28;20406;-63
2023/05/13 11:31:48;;;;;;;6.28;4.40;;;24.40;38.20;;;;;;5094351;28;20440;-63
2023/05/13 11:34:17;;;;;;;6.97;4.40;;;24.20;39.70;;;;;;5093727;28;20497;-63
2023/05/13 11:36:45;;;;;;;5.25;4.75;;;24.10;39.00;;;;;;5092740;28;20883;-63
2023/05/13 11:39:15;;;;;;;4.53;4.10;;;24.00;38.50;;;;;;5092621;28;20410;-63
2023/05/13 11:41:43;;;;;;;4.90;4.20;;;24.20;37.60;;;;;;5092740;28;20456;-63
2023/05/13 11:44:13;;;;;;;5.35;4.00;;;24.40;37.20;;;;;;5092720;28;20413;-63
2023/05/13 11:46:50;;;;;;;5.07;4.00;;;24.70;37.10;;;;;;5093948;28;20410;-64
2023/05/13 11:49:34;;;;;;;5.30;4.00;;;24.90;36.90;;;;;;5094270;28;20421;-63
2023/05/13 11:52:01;;;;;;;6.13;4.38;;;24.80;36.80;;;;;;5095167;28;20505;-66
2023/05/13 11:54:28;;;;;;;6.35;4.03;;;24.50;37.40;;;;;;5094741;28;20425;-67
2023/05/13 11:56:55;;;;;;;5.38;4.25;;;24.50;37.80;;;;;;5095064;28;20413;-68
2023/05/13 11:59:23;;;;;;;7.25;4.20;;;24.70;37.80;;;;;;5095758;28;20420;-62
2023/05/13 12:01:59;;;;;;;4.93;4.15;;;25.40;37.50;;;;;;5093109;28;20497;-63
2023/05/13 12:04:28;;;;;;;4.63;4.03;;;26.30;35.50;;;;;;5093285;28;20788;-62
2023/05/13 12:06:55;;;;;;;4.50;3.92;;;26.50;34.40;;;;;;5092965;28;20460;-65
2023/05/13 12:09:22;;;;;;;4.70;3.80;;;26.70;34.20;;;;;;5092813;28;20906;-63
2023/05/13 12:11:49;;;;;;;6.88;3.50;;;27.10;33.00;;;;;;5092406;28;20409;-62
2023/05/13 12:14:17;;;;;;;6.65;3.75;;;27.60;32.40;;;;;;5092175;28;20487;-64
2023/05/13 12:16:45;;;;;;;5.28;3.60;;;27.70;32.00;;;;;;5093100;28;20420;-64
2023/05/13 12:19:12;;;;;;;4.65;3.47;;;27.90;30.50;;;;;;5093089;28;20424;-63
2023/05/13 12:21:39;;;;;;;5.80;3.40;;;28.40;29.60;;;;;;5092339;28;20418;-63
2023/05/13 12:24:17;;;;;;;5.50;3.50;;;28.50;28.90;;;;;;5092406;28;20409;-63
2023/05/13 12:26:44;;;;;;;4.82;3.53;;;28.10;28.80;;;;;;5092593;28;20420;-64
2023/05/13 12:29:11;;;;;;;4.18;3.78;;;27.50;29.50;;;;;;5092468;28;20433;-63
2023/05/13 12:31:38;;;;;;;6.03;3.33;;;26.70;29.80;;;;;;5093081;28;20414;-62
2023/05/13 12:34:06;;;;;;;4.13;3.72;;;26.00;30.50;;;;;;5095997;28;20432;-63
2023/05/13 12:36:37;;;;;;;4.43;3.70;;;25.10;31.50;;;;;;5097748;28;20203;-64
2023/05/13 12:39:05;;;;;;;5.80;3.80;;;24.60;31.60;;;;;;5097380;28;20439;-63
2023/05/13 12:41:33;;;;;;;3.87;3.50;;;24.30;32.20;;;;;;5097328;28;20450;-62
2023/05/13 12:44:01;;;;;;;5.80;3.60;;;24.20;32.50;;;;;;5095504;28;20408;-63
2023/05/13 12:46:29;;;;;;;7.40;4.00;;;24.20;33.10;;;;;;5095965;28;20489;-63
2023/05/13 12:48:56;;;;;;;4.20;3.80;;;24.50;33.50;;;;;;5102115;28;20468;-62
2023/05/13 12:51:25;;;;;;;6.70;4.30;;;24.70;33.30;;;;;;5095667;28;20421;-63
2023/05/13 12:53:53;;;;;;;5.10;3.70;;;24.70;33.20;;;;;;5096825;28;20792;-62
2023/05/13 12:56:21;;;;;;;5.75;4.03;;;24.80;33.20;;;;;;5095952;28;20409;-63